Time;durP1;ratioP1;P1;durP2;ratioP2;P2;SDS_P1;SDS_P2;PMS_P1;PMS_P2;Temp;Humidity;BMP_temperature;BMP_pressure;BME280_temperature;BME280_humidity;BME280_pressure;Samples;Min_cycle;Max_cycle;Signal;HPM_P1;HPM_P2
2021/12/05 00:23:28;;;;;;;;;;;6.10;99.90;;;;;;5039792;28;19947;-74
2021/12/05 00:25:55;;;;;;;;;;;6.20;99.90;;;;;;5039632;28;19916;-73
2021/12/05 00:33:51;;;;;;;;;;;6.10;99.90;;;;;;5039842;28;19913;-74
2021/12/05 00:50:07;;;;;;;;;;;5.90;99.90;;;;;;5019750;28;19924;-74
2021/12/05 01:06:47;;;;;;;;;;;5.80;99.90;;;;;;5039266;28;20376;-74
2021/12/05 01:09:20;;;;;;;;;;;5.80;99.90;;;;;;5038707;28;19916;-74
2021/12/05 01:16:42;;;;;;;;;;;5.60;99.90;;;;;;5021599;28;19956;-73
2021/12/05 01:19:09;;;;;;;;;;;5.50;99.90;;;;;;5026650;28;19992;-74
2021/12/05 01:21:37;;;;;;;;;;;5.40;99.90;;;;;;5038652;28;20008;-74
2021/12/05 01:24:11;;;;;;;;;;;5.40;99.90;;;;;;5038637;28;19960;-74
2021/12/05 01:26:58;;;;;;;;;;;5.30;99.90;;;;;;5037666;28;19916;-74
2021/12/05 01:30:05;;;;;;;;;;;5.30;99.90;;;;;;5020940;28;19910;-74
2021/12/05 01:46:19;;;;;;;;;;;5.20;99.90;;;;;;5038279;28;20352;-74
2021/12/05 02:42:33;;;;;;;;;;;5.20;99.90;;;;;;5043920;28;19928;-74
2021/12/05 02:45:00;;;;;;;;;;;5.10;99.90;;;;;;5043591;28;19916;-74
2021/12/05 02:47:27;;;;;;;;;;;5.10;99.90;;;;;;5026420;28;19937;-74
2021/12/05 02:49:54;;;;;;;;;;;5.00;99.90;;;;;;5024328;28;19916;-76
2021/12/05 02:52:26;;;;;;;;;;;5.00;99.90;;;;;;5023893;28;19910;-75
2021/12/05 02:54:54;;;;;;;;;;;5.10;99.90;;;;;;5024290;28;19953;-75
2021/12/05 02:57:35;;;;;;;;;;;5.10;99.90;;;;;;5023907;28;20429;-75
2021/12/05 03:00:08;;;;;;;;;;;5.10;99.90;;;;;;5024084;28;20712;-76
2021/12/05 03:02:39;;;;;;;;;;;5.10;99.90;;;;;;5006585;28;19909;-75
2021/12/05 03:05:09;;;;;;;;;;;5.10;99.90;;;;;;5024185;28;19933;-75
2021/12/05 03:07:39;;;;;;;;;;;5.10;99.90;;;;;;5024058;28;19910;-75
2021/12/05 03:10:05;;;;;;;;;;;5.10;99.90;;;;;;5023939;28;19948;-75
2021/12/05 03:12:34;;;;;;;;;;;5.10;99.90;;;;;;5033477;28;20384;-74
2021/12/05 03:15:00;;;;;;;;;;;5.10;99.90;;;;;;5040459;28;19961;-75
2021/12/05 03:17:26;;;;;;;;;;;5.10;99.90;;;;;;5024003;28;20292;-74
2021/12/05 03:19:51;;;;;;;;;;;5.20;99.90;;;;;;5027549;28;19909;-74
2021/12/05 03:22:17;;;;;;;;;;;5.20;99.90;;;;;;5043668;28;19971;-75
2021/12/05 03:24:44;;;;;;;;;;;5.30;99.90;;;;;;5043676;28;19917;-75
2021/12/05 03:27:10;;;;;;;;;;;5.30;99.90;;;;;;5025835;28;20368;-75
2021/12/05 03:29:36;;;;;;;;;;;5.20;99.90;;;;;;5043585;28;20071;-75
2021/12/05 03:32:01;;;;;;;;;;;5.20;99.90;;;;;;5043846;28;19916;-75
2021/12/05 03:34:27;;;;;;;;;;;5.20;99.90;;;;;;5025711;28;20027;-75
2021/12/05 03:36:54;;;;;;;;;;;5.30;99.90;;;;;;5015292;28;19913;-75
2021/12/05 03:39:20;;;;;;;;;;;5.20;99.90;;;;;;5023741;28;20286;-75
2021/12/05 03:41:46;;;;;;;;;;;5.30;99.90;;;;;;5023782;28;19932;-75
2021/12/05 03:44:13;;;;;;;;;;;5.20;99.90;;;;;;5006055;28;19910;-76
2021/12/05 03:46:39;;;;;;;;;;;5.20;99.90;;;;;;5023818;28;19917;-75
2021/12/05 03:49:06;;;;;;;;;;;5.10;99.90;;;;;;5022634;28;20013;-75
2021/12/05 03:51:33;;;;;;;;;;;5.10;99.90;;;;;;5018944;28;19953;-75
2021/12/05 03:53:59;;;;;;;;;;;5.10;99.90;;;;;;5002784;28;19913;-74
2021/12/05 03:56:24;;;;;;;;;;;5.10;99.90;;;;;;5020526;28;19917;-74
2021/12/05 03:58:51;;;;;;;;;;;5.00;99.90;;;;;;5019125;28;19913;-74
2021/12/05 04:01:17;;;;;;;;;;;5.10;99.90;;;;;;5020688;28;19909;-74
2021/12/05 04:03:43;;;;;;;;;;;5.10;99.90;;;;;;5019032;28;19909;-74
2021/12/05 04:06:10;;;;;;;;;;;5.00;99.90;;;;;;5029551;28;19960;-74
2021/12/05 04:08:39;;;;;;;;;;;5.10;99.90;;;;;;5022654;28;19916;-74
2021/12/05 04:11:06;;;;;;;;;;;5.00;99.90;;;;;;5020236;28;19914;-73
2021/12/05 04:13:32;;;;;;;;;;;5.00;99.90;;;;;;5038141;28;19924;-73
2021/12/05 04:16:00;;;;;;;;;;;4.90;99.90;;;;;;5028743;28;19909;-74
2021/12/05 04:18:26;;;;;;;;;;;5.00;99.90;;;;;;5002651;28;19910;-73
2021/12/05 04:20:51;;;;;;;;;;;4.90;99.90;;;;;;5031580;28;19916;-74
2021/12/05 04:23:17;;;;;;;;;;;4.90;99.90;;;;;;5039573;28;19909;-74
2021/12/05 04:25:42;;;;;;;;;;;4.90;99.90;;;;;;5039717;28;19979;-74
2021/12/05 04:28:12;;;;;;;;;;;4.90;99.90;;;;;;5021856;28;19917;-73
2021/12/05 04:30:38;;;;;;;;;;;4.90;99.90;;;;;;5039708;28;19909;-73
2021/12/05 04:33:04;;;;;;;;;;;4.90;99.90;;;;;;5039538;28;19967;-74
2021/12/05 04:35:29;;;;;;;;;;;4.90;99.90;;;;;;5021936;28;19913;-73
2021/12/05 04:37:55;;;;;;;;;;;4.90;99.90;;;;;;5039253;28;19910;-73
2021/12/05 04:40:21;;;;;;;;;;;4.90;99.90;;;;;;5039472;28;19909;-73
2021/12/05 04:42:46;;;;;;;;;;;4.90;99.90;;;;;;5039312;28;19971;-74
2021/12/05 04:45:16;;;;;;;;;;;4.90;99.90;;;;;;5039547;28;19958;-74
2021/12/05 04:47:43;;;;;;;;;;;4.90;99.90;;;;;;5039279;28;19909;-74
2021/12/05 04:50:09;;;;;;;;;;;5.00;99.90;;;;;;5039712;28;19924;-74
2021/12/05 04:52:35;;;;;;;;;;;5.00;99.90;;;;;;5021163;28;19909;-74
2021/12/05 04:55:00;;;;;;;;;;;5.00;99.90;;;;;;5039190;28;19921;-74
2021/12/05 04:57:26;;;;;;;;;;;5.00;99.90;;;;;;5039060;28;20369;-74
2021/12/05 04:59:53;;;;;;;;;;;5.00;99.90;;;;;;5039211;28;19909;-73
2021/12/05 05:02:18;;;;;;;;;;;5.00;99.90;;;;;;5038749;28;19909;-74
2021/12/05 05:04:48;;;;;;;;;;;5.00;99.90;;;;;;5039034;28;19970;-74
2021/12/05 05:07:23;;;;;;;;;;;5.00;99.90;;;;;;5038899;28;19909;-74
2021/12/05 05:09:49;;;;;;;;;;;5.00;99.90;;;;;;5039012;28;20392;-74
2021/12/05 05:12:15;;;;;;;;;;;5.10;99.90;;;;;;5038603;28;19917;-74
2021/12/05 05:14:41;;;;;;;;;;;5.10;99.90;;;;;;5037880;28;20369;-75
2021/12/05 05:17:06;;;;;;;;;;;5.10;99.90;;;;;;5001569;28;19959;-74
2021/12/05 05:19:47;;;;;;;;;;;5.10;99.90;;;;;;5010947;28;19910;-75
2021/12/05 05:41:15;;;;;;;;;;;5.50;99.90;;;;;;5030799;28;19916;-75
2021/12/05 05:48:32;;;;;;;;;;;5.60;99.90;;;;;;5038502;28;20357;-75
2021/12/05 05:50:59;;;;;;;;;;;5.60;99.90;;;;;;5038430;28;19932;-75
2021/12/05 05:53:24;;;;;;;;;;;5.60;99.90;;;;;;5037879;28;19959;-74
2021/12/05 05:55:51;;;;;;;;;;;5.60;99.90;;;;;;5037968;28;19913;-74
2021/12/05 05:58:19;;;;;;;;;;;5.60;99.90;;;;;;5038076;28;20389;-74
2021/12/05 06:01:03;;;;;;;;;;;5.60;99.90;;;;;;5037915;28;19917;-75
2021/12/05 06:03:30;;;;;;;;;;;5.60;99.90;;;;;;5036599;28;19915;-75
2021/12/05 06:06:00;;;;;;;;;;;5.60;99.90;;;;;;5037078;28;20390;-74
2021/12/05 06:08:27;;;;;;;;;;;5.50;99.90;;;;;;5022561;28;19917;-75
2021/12/05 06:10:54;;;;;;;;;;;5.50;99.90;;;;;;5000301;28;19909;-75
2021/12/05 06:13:20;;;;;;;;;;;5.40;99.90;;;;;;5033711;28;20384;-75
2021/12/05 06:15:47;;;;;;;;;;;5.40;99.90;;;;;;5010625;28;19909;-75
2021/12/05 06:18:13;;;;;;;;;;;5.40;99.90;;;;;;5017885;28;19916;-74
2021/12/05 06:20:38;;;;;;;;;;;5.40;99.90;;;;;;5028161;28;19910;-75
2021/12/05 06:23:04;;;;;;;;;;;5.40;99.90;;;;;;5019707;28;19948;-74
2021/12/05 06:25:32;;;;;;;;;;;5.40;99.90;;;;;;5036322;28;19920;-75
2021/12/05 06:28:03;;;;;;;;;;;5.30;99.90;;;;;;5036282;28;19909;-76
2021/12/05 06:30:47;;;;;;;;;;;5.30;99.90;;;;;;5037618;28;19978;-75
2021/12/05 06:46:34;;;;;;;;;;;5.10;99.90;;;;;;5037654;28;19909;-75
2021/12/05 06:48:58;;;;;;;;;;;5.00;99.90;;;;;;5037007;28;19913;-74
2021/12/05 06:51:25;;;;;;;;;;;5.00;99.90;;;;;;5026725;28;19915;-75
2021/12/05 06:53:51;;;;;;;;;;;5.00;99.90;;;;;;5017551;28;20373;-75
2021/12/05 06:56:17;;;;;;;;;;;5.00;99.90;;;;;;4999990;28;20296;-74
2021/12/05 06:58:43;;;;;;;;;;;5.00;99.90;;;;;;5016294;28;19909;-74
2021/12/05 07:01:09;;;;;;;;;;;4.90;99.90;;;;;;5017693;28;19949;-74
2021/12/05 07:03:36;;;;;;;;;;;4.90;99.90;;;;;;4999904;28;19916;-74
2021/12/05 07:06:07;;;;;;;;;;;4.90;99.90;;;;;;5017504;28;19933;-73
2021/12/05 07:08:36;;;;;;;;;;;4.90;99.90;;;;;;5017307;28;20436;-73
2021/12/05 07:24:37;;;;;;;;;;;4.80;99.90;;;;;;5037079;28;19909;-74
2021/12/05 07:40:25;;;;;;;;;;;4.60;99.90;;;;;;5039245;28;19967;-74
2021/12/05 07:42:52;;;;;;;;;;;4.60;99.90;;;;;;5021529;28;19916;-74
2021/12/05 07:45:22;;;;;;;;;;;4.50;99.90;;;;;;5040015;28;19963;-74
2021/12/05 07:47:51;;;;;;;;;;;4.50;99.90;;;;;;5022080;28;19909;-73
2021/12/05 07:50:19;;;;;;;;;;;4.50;99.90;;;;;;5039957;28;20342;-74
2021/12/05 07:52:50;;;;;;;;;;;4.50;99.90;;;;;;5021841;28;19928;-74
2021/12/05 07:55:24;;;;;;;;;;;4.50;99.90;;;;;;5039613;28;19913;-74
2021/12/05 08:16:34;;;;;;;;;;;4.80;99.90;;;;;;5039636;28;19999;-75
2021/12/05 08:19:00;;;;;;;;;;;4.80;99.90;;;;;;5030441;28;19914;-75
2021/12/05 08:21:26;;;;;;;;;;;4.90;99.90;;;;;;5036075;28;19915;-75
2021/12/05 08:23:52;;;;;;;;;;;4.90;99.90;;;;;;5040126;28;19913;-74
2021/12/05 08:26:21;;;;;;;;;;;4.90;99.90;;;;;;5021835;28;19999;-75
2021/12/05 10:09:20;;;;;;;;;;;5.90;99.90;;;;;;5038172;28;19928;-76
2021/12/05 10:12:01;;;;;;;;;;;6.00;99.90;;;;;;5019714;28;20385;-76
2021/12/05 10:14:45;;;;;;;;;;;6.10;99.90;;;;;;5037810;28;20008;-77
2021/12/05 10:38:23;;;;;;;;;;;6.30;99.90;;;;;;5017925;28;19932;-75
2021/12/05 10:41:00;;;;;;;;;;;6.20;99.90;;;;;;5017628;28;19917;-75
2021/12/05 10:43:27;;;;;;;;;;;6.20;99.90;;;;;;5019019;28;19909;-75
2021/12/05 10:45:54;;;;;;;;;;;6.20;99.90;;;;;;5037052;28;19909;-75
2021/12/05 10:48:36;;;;;;;;;;;6.20;99.90;;;;;;5037443;28;19909;-76
2021/12/05 10:51:03;;;;;;;;;;;6.10;99.90;;;;;;5037306;28;19940;-75
2021/12/05 10:53:37;;;;;;;;;;;6.20;99.90;;;;;;5036988;28;19913;-77
2021/12/05 10:56:21;;;;;;;;;;;6.20;99.90;;;;;;5037430;28;19909;-77
2021/12/05 10:58:49;;;;;;;;;;;6.20;99.90;;;;;;5037868;28;20392;-75
2021/12/05 11:01:21;;;;;;;;;;;6.20;99.90;;;;;;5039749;28;20407;-76
2021/12/05 11:03:48;;;;;;;;;;;6.20;99.90;;;;;;5005879;28;19949;-77
2021/12/05 11:06:35;;;;;;;;;;;6.20;99.90;;;;;;5003566;28;19909;-78
2021/12/05 11:09:03;;;;;;;;;;;6.20;99.90;;;;;;5028974;28;20369;-76
2021/12/05 11:11:29;;;;;;;;;;;6.30;99.90;;;;;;5023051;28;19924;-77
2021/12/05 11:13:54;;;;;;;;;;;6.30;99.90;;;;;;5023343;28;19917;-76
2021/12/05 11:16:30;;;;;;;;;;;6.30;99.90;;;;;;5009024;28;19966;-76
2021/12/05 11:18:56;;;;;;;;;;;6.30;99.90;;;;;;5008228;28;19913;-76
2021/12/05 11:21:32;;;;;;;;;;;6.40;99.90;;;;;;5039365;28;19932;-77
2021/12/05 11:24:04;;;;;;;;;;;6.50;99.90;;;;;;5013113;28;19910;-76
2021/12/05 11:26:30;;;;;;;;;;;6.50;99.90;;;;;;5003180;28;19916;-77
2021/12/05 11:28:56;;;;;;;;;;;6.50;99.90;;;;;;5021115;28;20286;-77
2021/12/05 11:31:25;;;;;;;;;;;6.60;99.90;;;;;;5029389;28;19936;-77
2021/12/05 11:33:54;;;;;;;;;;;6.60;99.90;;;;;;5040015;28;20296;-77
2021/12/05 11:36:27;;;;;;;;;;;6.60;99.90;;;;;;5016440;28;19913;-76
2021/12/05 11:38:52;;;;;;;;;;;6.60;99.90;;;;;;5038520;28;19949;-77
2021/12/05 11:41:20;;;;;;;;;;;6.70;99.90;;;;;;5039488;28;19968;-78
2021/12/05 11:43:47;;;;;;;;;;;6.80;99.90;;;;;;5022646;28;19909;-76
2021/12/05 11:46:28;;;;;;;;;;;6.70;99.90;;;;;;5040377;28;20289;-78
2021/12/05 11:48:54;;;;;;;;;;;6.70;99.90;;;;;;5040172;28;19931;-78
2021/12/05 11:51:29;;;;;;;;;;;6.60;99.90;;;;;;5040395;28;20320;-78
2021/12/05 11:54:05;;;;;;;;;;;6.60;99.90;;;;;;5040053;28;20013;-78
2021/12/05 11:56:30;;;;;;;;;;;6.60;99.90;;;;;;5022539;28;19916;-78
2021/12/05 11:59:05;;;;;;;;;;;6.70;99.90;;;;;;5040141;28;19949;-79
2021/12/05 12:01:40;;;;;;;;;;;6.70;99.90;;;;;;5022173;28;19909;-78
2021/12/05 12:04:06;;;;;;;;;;;6.70;99.90;;;;;;5041146;28;19960;-77
2021/12/05 12:06:31;;;;;;;;;;;6.90;99.90;;;;;;5040205;28;19909;-78
2021/12/05 12:08:57;;;;;;;;;;;6.90;99.90;;;;;;5014914;28;19910;-78
2021/12/05 12:11:23;;;;;;;;;;;6.90;99.90;;;;;;5019673;28;20003;-77
2021/12/05 12:13:50;;;;;;;;;;;6.80;99.90;;;;;;5040125;28;20004;-78
2021/12/05 12:16:16;;;;;;;;;;;6.80;99.90;;;;;;5008260;28;19932;-78
2021/12/05 12:18:45;;;;;;;;;;;6.70;99.90;;;;;;5019186;28;19914;-78
2021/12/05 12:21:11;;;;;;;;;;;6.70;99.90;;;;;;5034548;28;19913;-78
2021/12/05 12:23:37;;;;;;;;;;;6.70;99.90;;;;;;5013764;28;19909;-77
2021/12/05 12:26:03;;;;;;;;;;;6.70;99.90;;;;;;5020024;28;20377;-78
2021/12/05 12:28:29;;;;;;;;;;;6.70;99.90;;;;;;5018681;28;19956;-82
2021/12/05 12:30:56;;;;;;;;;;;6.80;99.90;;;;;;5020008;28;19913;-78
2021/12/05 12:33:30;;;;;;;;;;;6.80;99.90;;;;;;5002348;28;19910;-78
2021/12/05 12:35:56;;;;;;;;;;;6.90;99.90;;;;;;5019807;28;19910;-78
2021/12/05 12:38:21;;;;;;;;;;;7.00;99.90;;;;;;5019767;28;20332;-79
2021/12/05 12:40:52;;;;;;;;;;;6.90;99.90;;;;;;5017911;28;19952;-78
2021/12/05 12:43:44;;;;;;;;;;;7.00;99.90;;;;;;5036634;28;19909;-80
2021/12/05 12:46:19;;;;;;;;;;;6.90;99.90;;;;;;5009750;28;19910;-79
2021/12/05 12:48:45;;;;;;;;;;;6.90;99.90;;;;;;5018253;28;20393;-80
2021/12/05 12:51:29;;;;;;;;;;;6.90;99.90;;;;;;5038001;28;19924;-80
2021/12/05 12:53:56;;;;;;;;;;;6.90;99.90;;;;;;5020754;28;20067;-78
2021/12/05 12:56:23;;;;;;;;;;;7.00;99.90;;;;;;5037934;28;19924;-80
2021/12/05 12:58:58;;;;;;;;;;;7.00;99.90;;;;;;5018779;28;19920;-78
2021/12/05 13:01:42;;;;;;;;;;;7.00;99.90;;;;;;5038766;28;19909;-79
2021/12/05 13:10:00;;;;;;;;;;;7.20;99.90;;;;;;5037951;28;19948;-80
2021/12/05 13:10:17;;;;;;;;;;;7.20;99.90;;;;;;5038598;28;20335;-78
2021/12/05 13:12:47;;;;;;;;;;;7.30;99.90;;;;;;5038681;28;20329;-80
2021/12/05 13:15:16;;;;;;;;;;;7.30;99.90;;;;;;5020369;28;19924;-81
2021/12/05 13:18:05;;;;;;;;;;;7.30;99.90;;;;;;5019106;28;19917;-79
2021/12/05 13:20:43;;;;;;;;;;;7.20;99.90;;;;;;5012977;28;20004;-79
2021/12/05 13:23:10;;;;;;;;;;;7.10;99.90;;;;;;5034033;28;19909;-79
2021/12/05 13:25:55;;;;;;;;;;;7.10;99.90;;;;;;5001290;28;19909;-81
2021/12/05 13:28:27;;;;;;;;;;;7.10;99.90;;;;;;5017882;28;19913;-80
2021/12/05 13:30:53;;;;;;;;;;;7.00;99.90;;;;;;5037819;28;19992;-79
2021/12/05 13:33:19;;;;;;;;;;;7.00;99.90;;;;;;5037945;28;19940;-83
2021/12/05 13:35:45;;;;;;;;;;;7.00;99.90;;;;;;5037793;28;19913;-80
2021/12/05 13:38:30;;;;;;;;;;;7.00;99.90;;;;;;5037620;28;19955;-79
2021/12/05 13:40:56;;;;;;;;;;;6.90;99.90;;;;;;5037527;28;20408;-81
2021/12/05 13:43:28;;;;;;;;;;;7.00;99.90;;;;;;5037797;28;19909;-79
2021/12/05 13:45:57;;;;;;;;;;;7.10;99.90;;;;;;5038246;28;20401;-80
2021/12/05 13:48:26;;;;;;;;;;;7.10;99.90;;;;;;5020581;28;19913;-80
2021/12/05 13:50:57;;;;;;;;;;;7.10;99.90;;;;;;5038102;28;19909;-82
2021/12/05 13:53:30;;;;;;;;;;;7.10;99.90;;;;;;5037404;28;19909;-80
2021/12/05 13:56:02;;;;;;;;;;;7.20;99.90;;;;;;5013680;28;19909;-80
2021/12/05 13:58:46;;;;;;;;;;;7.20;99.90;;;;;;5035548;28;19913;-78
2021/12/05 14:01:29;;;;;;;;;;;7.30;99.90;;;;;;5037587;28;19913;-78
2021/12/05 14:03:57;;;;;;;;;;;7.30;99.90;;;;;;5037733;28;19931;-78
2021/12/05 14:06:41;;;;;;;;;;;7.40;99.90;;;;;;5020128;28;20055;-81
2021/12/05 14:09:07;;;;;;;;;;;7.50;99.90;;;;;;5038116;28;19956;-79
2021/12/05 14:11:33;;;;;;;;;;;7.50;99.90;;;;;;5019742;28;19917;-79
2021/12/05 14:14:02;;;;;;;;;;;7.50;99.90;;;;;;5037893;28;20387;-78
2021/12/05 14:16:38;;;;;;;;;;;7.60;99.90;;;;;;5004412;28;20289;-78
2021/12/05 14:19:05;;;;;;;;;;;7.50;99.90;;;;;;5034518;28;20013;-79
2021/12/05 14:21:31;;;;;;;;;;;7.50;99.90;;;;;;5036765;28;19995;-80
2021/12/05 14:23:58;;;;;;;;;;;7.40;99.90;;;;;;5034327;28;19909;-78
2021/12/05 14:26:25;;;;;;;;;;;7.40;99.90;;;;;;5018325;28;19959;-78
2021/12/05 14:29:03;;;;;;;;;;;7.30;99.90;;;;;;5036911;28;19909;-80
2021/12/05 14:31:31;;;;;;;;;;;7.30;99.90;;;;;;5036807;28;19913;-81
2021/12/05 14:33:57;;;;;;;;;;;7.30;99.90;;;;;;5036468;28;19920;-80
2021/12/05 14:36:24;;;;;;;;;;;7.30;99.90;;;;;;5036617;28;19910;-80
2021/12/05 14:39:11;;;;;;;;;;;7.30;99.90;;;;;;5036828;28;20438;-79
2021/12/05 14:41:37;;;;;;;;;;;7.30;99.90;;;;;;5034404;28;19909;-79
2021/12/05 14:44:03;;;;;;;;;;;7.30;99.90;;;;;;5019473;28;20008;-79
2021/12/05 14:46:29;;;;;;;;;;;7.30;99.90;;;;;;5037109;28;19964;-80
2021/12/05 14:48:58;;;;;;;;;;;7.30;99.90;;;;;;5036715;28;19924;-80
2021/12/05 14:51:34;;;;;;;;;;;7.30;99.90;;;;;;5018880;28;19910;-80
2021/12/05 14:54:00;;;;;;;;;;;7.30;99.90;;;;;;5036588;28;20353;-80
2021/12/05 14:56:30;;;;;;;;;;;7.30;99.90;;;;;;5036720;28;19935;-80
2021/12/05 14:59:06;;;;;;;;;;;7.30;99.90;;;;;;5036814;28;19948;-80
2021/12/05 15:01:33;;;;;;;;;;;7.30;99.90;;;;;;5018306;28;19913;-81
2021/12/05 15:04:00;;;;;;;;;;;7.20;99.90;;;;;;5036898;28;19909;-80
2021/12/05 15:06:35;;;;;;;;;;;7.10;99.90;;;;;;5036317;28;19909;-80
2021/12/05 15:09:02;;;;;;;;;;;7.10;99.90;;;;;;5016950;28;19962;-80
2021/12/05 15:11:28;;;;;;;;;;;7.00;99.90;;;;;;5036260;28;19980;-80
2021/12/05 15:14:06;;;;;;;;;;;6.90;99.90;;;;;;5036409;28;20338;-81
2021/12/05 15:16:31;;;;;;;;;;;6.80;99.90;;;;;;5036443;28;19932;-81
2021/12/05 15:18:57;;;;;;;;;;;6.70;99.90;;;;;;5036017;28;19909;-80
2021/12/05 15:21:23;;;;;;;;;;;6.70;99.90;;;;;;5018407;28;19975;-80
2021/12/05 15:23:49;;;;;;;;;;;6.60;99.90;;;;;;5036731;28;19909;-81
2021/12/05 15:26:14;;;;;;;;;;;6.60;99.90;;;;;;5018503;28;20000;-81
2021/12/05 15:28:40;;;;;;;;;;;6.60;99.90;;;;;;5018240;28;19917;-81
2021/12/05 15:31:06;;;;;;;;;;;6.50;99.90;;;;;;5036212;28;19917;-80
2021/12/05 15:33:34;;;;;;;;;;;6.50;99.90;;;;;;5018609;28;19932;-80
2021/12/05 15:36:00;;;;;;;;;;;6.50;99.90;;;;;;5032419;28;19967;-80
2021/12/05 15:38:28;;;;;;;;;;;6.60;99.90;;;;;;5017518;28;19909;-82
2021/12/05 15:40:55;;;;;;;;;;;6.60;99.90;;;;;;5016903;28;19917;-82
2021/12/05 15:43:22;;;;;;;;;;;6.60;99.90;;;;;;5015964;28;19910;-81
2021/12/05 15:45:50;;;;;;;;;;;6.60;99.90;;;;;;4999952;28;19910;-80
2021/12/05 15:48:46;;;;;;;;;;;6.70;99.90;;;;;;5020822;28;19918;-80
2021/12/05 15:51:13;;;;;;;;;;;6.70;99.90;;;;;;5020039;28;20388;-80
2021/12/05 15:53:40;;;;;;;;;;;6.70;99.90;;;;;;5040294;28;20012;-80
2021/12/05 15:56:08;;;;;;;;;;;6.70;99.90;;;;;;5040435;28;19955;-80
2021/12/05 15:58:45;;;;;;;;;;;6.80;99.90;;;;;;5040137;28;19916;-80
2021/12/05 16:01:13;;;;;;;;;;;6.70;99.90;;;;;;5040217;28;19932;-81
2021/12/05 16:03:43;;;;;;;;;;;6.70;99.90;;;;;;5040174;28;19937;-81
2021/12/05 16:06:09;;;;;;;;;;;6.70;99.90;;;;;;5028497;28;19960;-83
2021/12/05 16:08:35;;;;;;;;;;;6.60;99.90;;;;;;5020234;28;19949;-82
2021/12/05 16:11:01;;;;;;;;;;;6.50;99.90;;;;;;5020328;28;19927;-81
2021/12/05 16:13:30;;;;;;;;;;;6.50;99.90;;;;;;5037487;28;20389;-82
2021/12/05 16:16:05;;;;;;;;;;;6.50;99.90;;;;;;5029865;28;19913;-78
2021/12/05 16:18:35;;;;;;;;;;;6.40;99.90;;;;;;5023731;28;19959;-78
2021/12/05 16:21:05;;;;;;;;;;;6.40;99.90;;;;;;5039151;28;19913;-78
2021/12/05 16:23:34;;;;;;;;;;;6.30;99.90;;;;;;5030914;28;20301;-78
2021/12/05 16:26:05;;;;;;;;;;;6.40;99.90;;;;;;5039390;28;20008;-77
2021/12/05 16:28:32;;;;;;;;;;;6.40;99.90;;;;;;5039794;28;19916;-77
2021/12/05 16:31:00;;;;;;;;;;;6.40;99.90;;;;;;5039723;28;19909;-78
2021/12/05 16:33:29;;;;;;;;;;;6.40;99.90;;;;;;5039304;28;19909;-77
2021/12/05 16:35:55;;;;;;;;;;;6.40;99.90;;;;;;5022483;28;19909;-76
2021/12/05 16:38:24;;;;;;;;;;;6.50;99.90;;;;;;5019787;28;20388;-77
2021/12/05 16:41:22;;;;;;;;;;;6.50;99.90;;;;;;5017783;28;19955;-78
2021/12/05 16:43:47;;;;;;;;;;;6.50;99.90;;;;;;4999292;28;20335;-78
2021/12/05 16:46:15;;;;;;;;;;;6.50;99.90;;;;;;5019147;28;19910;-78
2021/12/05 16:48:42;;;;;;;;;;;6.50;99.90;;;;;;5033708;28;19963;-77
2021/12/05 16:51:19;;;;;;;;;;;6.40;99.90;;;;;;5039045;28;20292;-78
2021/12/05 16:53:47;;;;;;;;;;;6.40;99.90;;;;;;5021140;28;19914;-78
2021/12/05 16:56:33;;;;;;;;;;;6.40;99.90;;;;;;5028588;28;19980;-77
2021/12/05 16:59:06;;;;;;;;;;;6.30;99.90;;;;;;5028141;28;20392;-77
2021/12/05 17:01:32;;;;;;;;;;;6.30;99.90;;;;;;5037937;28;19957;-77
2021/12/05 17:03:57;;;;;;;;;;;6.30;99.90;;;;;;5020859;28;20395;-78
2021/12/05 17:06:23;;;;;;;;;;;6.30;99.90;;;;;;5019987;28;20040;-78
2021/12/05 17:08:48;;;;;;;;;;;6.20;99.90;;;;;;5038503;28;19913;-78
2021/12/05 17:11:18;;;;;;;;;;;6.10;99.90;;;;;;5037432;28;19962;-78
2021/12/05 17:13:44;;;;;;;;;;;6.10;99.90;;;;;;5038675;28;19917;-78
2021/12/05 17:16:11;;;;;;;;;;;6.00;99.90;;;;;;5037489;28;19932;-78
2021/12/05 17:18:38;;;;;;;;;;;5.90;99.90;;;;;;5038185;28;19925;-78
2021/12/05 17:21:14;;;;;;;;;;;5.90;99.90;;;;;;5034701;28;20312;-78
2021/12/05 17:23:42;;;;;;;;;;;5.90;99.90;;;;;;5030151;28;19909;-78
2021/12/05 17:26:08;;;;;;;;;;;5.90;99.90;;;;;;5026450;28;19953;-78
2021/12/05 17:28:35;;;;;;;;;;;5.90;99.90;;;;;;5028576;28;19916;-78
2021/12/05 17:31:02;;;;;;;;;;;5.80;99.90;;;;;;5034395;28;19909;-78
2021/12/05 17:33:30;;;;;;;;;;;5.80;99.90;;;;;;5029780;28;20369;-77
2021/12/05 17:35:56;;;;;;;;;;;5.80;99.90;;;;;;5031380;28;20003;-78
2021/12/05 17:38:29;;;;;;;;;;;5.80;99.90;;;;;;5011234;28;19909;-78
2021/12/05 17:40:55;;;;;;;;;;;5.80;99.90;;;;;;5029793;28;19952;-78
2021/12/05 17:43:21;;;;;;;;;;;5.70;99.90;;;;;;5024403;28;19913;-78
2021/12/05 17:45:46;;;;;;;;;;;5.70;99.90;;;;;;5018339;28;20427;-78
2021/12/05 17:48:12;;;;;;;;;;;5.60;99.90;;;;;;5018454;28;19916;-78
2021/12/05 17:50:39;;;;;;;;;;;5.60;99.90;;;;;;5019794;28;19909;-78
2021/12/05 17:53:04;;;;;;;;;;;5.60;99.90;;;;;;5038025;28;19920;-78
2021/12/05 17:55:32;;;;;;;;;;;5.50;99.90;;;;;;5019806;28;19917;-78
2021/12/05 17:58:17;;;;;;;;;;;5.50;99.90;;;;;;5038219;28;19915;-76
2021/12/05 18:00:58;;;;;;;;;;;5.40;99.90;;;;;;5037923;28;19909;-79
2021/12/05 18:03:23;;;;;;;;;;;5.40;99.90;;;;;;5037782;28;19916;-77
2021/12/05 18:05:49;;;;;;;;;;;5.30;99.90;;;;;;5037525;28;19909;-78
2021/12/05 18:08:18;;;;;;;;;;;5.30;99.90;;;;;;5037164;28;19948;-78
2021/12/05 18:10:54;;;;;;;;;;;5.20;99.90;;;;;;5030777;28;19914;-78
2021/12/05 18:13:23;;;;;;;;;;;5.20;99.90;;;;;;5016192;28;19924;-77
2021/12/05 18:15:56;;;;;;;;;;;5.10;99.90;;;;;;5027612;28;19953;-78
2021/12/05 18:18:23;;;;;;;;;;;5.10;99.90;;;;;;5017615;28;20274;-79
2021/12/05 18:20:48;;;;;;;;;;;5.00;99.90;;;;;;5019359;28;19917;-78
2021/12/05 18:23:14;;;;;;;;;;;5.00;99.90;;;;;;5017620;28;19910;-78
2021/12/05 18:25:41;;;;;;;;;;;5.00;99.90;;;;;;5017753;28;20459;-78
2021/12/05 18:28:06;;;;;;;;;;;5.00;99.90;;;;;;4999960;28;19910;-78
2021/12/05 18:30:33;;;;;;;;;;;5.00;99.90;;;;;;5017547;28;20014;-78
2021/12/05 18:33:00;;;;;;;;;;;5.10;99.90;;;;;;4999901;28;19953;-78
2021/12/05 18:35:31;;;;;;;;;;;5.10;99.90;;;;;;5017626;28;20456;-77
2021/12/05 18:37:57;;;;;;;;;;;5.10;99.90;;;;;;4999955;28;19917;-78
2021/12/05 18:40:23;;;;;;;;;;;5.10;99.90;;;;;;5017498;28;19910;-78
2021/12/05 18:42:50;;;;;;;;;;;5.10;99.90;;;;;;5017541;28;19909;-77
2021/12/05 18:45:19;;;;;;;;;;;5.10;99.90;;;;;;5016279;28;19916;-78
2021/12/05 18:47:45;;;;;;;;;;;4.90;99.90;;;;;;5017500;28;19916;-80
2021/12/05 18:50:11;;;;;;;;;;;4.80;99.90;;;;;;5023736;28;20360;-78
2021/12/05 18:52:37;;;;;;;;;;;4.70;99.90;;;;;;5017400;28;19910;-78
2021/12/05 18:55:08;;;;;;;;;;;4.70;99.90;;;;;;5017771;28;20346;-78
2021/12/05 18:57:33;;;;;;;;;;;4.70;99.90;;;;;;5006874;28;19909;-78
2021/12/05 19:00:09;;;;;;;;;;;4.70;99.90;;;;;;5037064;28;20331;-78
2021/12/05 19:05:31;;;;;;;;;;;4.70;99.90;;;;;;5036941;28;19971;-79
2021/12/05 19:13:14;;;;;;;;;;;4.70;99.90;;;;;;5036234;28;19925;-78
2021/12/05 19:15:39;;;;;;;;;;;4.80;99.90;;;;;;5036537;28;19917;-78
2021/12/05 19:18:05;;;;;;;;;;;4.80;99.90;;;;;;5018943;28;20369;-76
2021/12/05 19:20:31;;;;;;;;;;;4.80;99.90;;;;;;5035248;28;19916;-76
2021/12/05 19:22:58;;;;;;;;;;;4.80;99.90;;;;;;5022332;28;19910;-77
2021/12/05 19:25:28;;;;;;;;;;;4.80;99.90;;;;;;5040287;28;20288;-77
2021/12/05 19:27:54;;;;;;;;;;;4.80;99.90;;;;;;5022412;28;19909;-76
2021/12/05 19:30:23;;;;;;;;;;;4.80;99.90;;;;;;5040260;28;19913;-76
2021/12/05 19:32:48;;;;;;;;;;;4.80;99.90;;;;;;5040167;28;19916;-76
2021/12/05 19:35:14;;;;;;;;;;;4.80;99.90;;;;;;5036082;28;19913;-77
2021/12/05 19:37:42;;;;;;;;;;;4.90;99.90;;;;;;5037092;28;19919;-77
2021/12/05 19:40:10;;;;;;;;;;;4.90;99.90;;;;;;5022532;28;19916;-76
2021/12/05 19:42:35;;;;;;;;;;;4.90;99.90;;;;;;5021861;28;20421;-76
2021/12/05 19:45:02;;;;;;;;;;;4.90;99.90;;;;;;5022354;28;19971;-76
2021/12/05 19:47:27;;;;;;;;;;;5.00;99.90;;;;;;5040414;28;20463;-76
2021/12/05 19:49:53;;;;;;;;;;;4.90;99.90;;;;;;5040551;28;19909;-77
2021/12/05 19:52:19;;;;;;;;;;;4.90;99.90;;;;;;5038855;28;19909;-76
2021/12/05 19:54:46;;;;;;;;;;;4.90;99.90;;;;;;5040413;28;19966;-77
2021/12/05 19:57:11;;;;;;;;;;;4.90;99.90;;;;;;5021140;28;19936;-76
2021/12/05 19:59:37;;;;;;;;;;;4.90;99.90;;;;;;5038712;28;19914;-76
2021/12/05 20:02:03;;;;;;;;;;;4.90;99.90;;;;;;5039304;28;19909;-77
2021/12/05 20:04:29;;;;;;;;;;;4.90;99.90;;;;;;5038686;28;20385;-75
2021/12/05 20:06:54;;;;;;;;;;;4.90;99.90;;;;;;5037918;28;20288;-75
2021/12/05 20:09:20;;;;;;;;;;;4.90;99.90;;;;;;5038063;28;19956;-76
2021/12/05 20:11:47;;;;;;;;;;;4.90;99.90;;;;;;5039405;28;19971;-77
2021/12/05 20:14:13;;;;;;;;;;;5.00;99.90;;;;;;5021298;28;20305;-77
2021/12/05 20:16:39;;;;;;;;;;;5.00;99.90;;;;;;5039496;28;19975;-76
2021/12/05 20:19:05;;;;;;;;;;;4.90;99.90;;;;;;5039000;28;19909;-76
2021/12/05 20:21:32;;;;;;;;;;;4.90;99.90;;;;;;5023053;28;20301;-77
2021/12/05 20:23:58;;;;;;;;;;;4.90;99.90;;;;;;5020068;28;19932;-76
2021/12/05 20:26:24;;;;;;;;;;;4.80;99.90;;;;;;5019789;28;19948;-75